createdAt,value
2018-09-02T00:01:20.127Z,78.45
2018-09-02T00:06:23.287Z,78.26
2018-09-02T00:11:26.931Z,78.17
2018-09-02T00:16:30.202Z,78.13
2018-09-02T00:21:33.536Z,77.94
2018-09-02T00:26:36.807Z,78.47
2018-09-02T00:31:39.988Z,81.00
2018-09-02T00:36:43.170Z,79.44
2018-09-02T00:41:46.324Z,81.00
2018-09-02T00:46:49.525Z,81.67
2018-09-02T00:51:52.822Z,82.07
2018-09-02T00:56:56.190Z,80.87
2018-09-02T01:01:59.421Z,79.27
2018-09-02T01:07:02.897Z,80.88
2018-09-02T01:12:06.187Z,80.94
2018-09-02T01:17:09.696Z,81.58
2018-09-02T01:22:13.217Z,80.35
2018-09-02T01:27:16.474Z,80.08
2018-09-02T01:32:19.630Z,81.45
2018-09-02T01:37:22.772Z,82.14
2018-09-02T01:42:26.038Z,82.56
2018-09-02T01:47:29.214Z,83.87
2018-09-02T01:52:32.397Z,83.31
2018-09-02T01:57:35.675Z,82.82
2018-09-02T02:02:39.127Z,83.41
2018-09-02T02:07:42.509Z,84.54
2018-09-02T02:12:45.785Z,83.22
2018-09-02T02:17:49.049Z,82.39
2018-09-02T02:22:52.166Z,81.67
2018-09-02T02:27:55.486Z,82.54
2018-09-02T02:32:58.757Z,82.06
2018-09-02T02:38:02.202Z,82.30
2018-09-02T02:43:05.518Z,81.98
2018-09-02T02:48:09.037Z,82.43
2018-09-02T02:53:12.317Z,82.75
2018-09-02T02:58:15.715Z,82.75
2018-09-02T03:03:18.905Z,82.03
2018-09-02T03:08:22.083Z,82.44
2018-09-02T03:13:25.244Z,81.68
2018-09-02T03:18:28.458Z,82.40
2018-09-02T03:23:31.702Z,82.65
2018-09-02T03:28:36.232Z,82.97
2018-09-02T03:33:39.561Z,83.53
2018-09-02T03:38:42.963Z,83.40
2018-09-02T03:43:46.319Z,84.69
2018-09-02T03:48:49.550Z,83.53
2018-09-02T03:53:52.701Z,83.76
2018-09-02T03:58:59.594Z,84.53
2018-09-02T04:04:02.810Z,84.49
2018-09-02T04:09:08.038Z,84.05
2018-09-02T04:14:11.447Z,84.24
2018-09-02T04:19:14.906Z,83.30
2018-09-02T04:24:18.722Z,82.48
2018-09-02T04:29:24.438Z,83.10
2018-09-02T04:34:28.068Z,83.12
2018-09-02T04:39:31.246Z,84.10
2018-09-02T04:44:34.422Z,84.50
2018-09-02T04:49:37.676Z,84.28
2018-09-02T04:54:41.326Z,84.85
2018-09-02T04:59:44.583Z,84.86
2018-09-02T05:04:47.728Z,85.56
2018-09-02T05:09:51.040Z,85.48
2018-09-02T05:14:54.475Z,85.50
2018-09-02T05:19:57.743Z,84.31
2018-09-02T05:25:01.108Z,84.36
2018-09-02T05:30:05.059Z,83.71
2018-09-02T05:35:08.513Z,84.13
2018-09-02T05:40:11.712Z,84.43
2018-09-02T05:45:14.942Z,83.59
2018-09-02T05:50:18.121Z,83.15
2018-09-02T05:55:21.498Z,82.93
2018-09-02T06:00:24.841Z,82.90
2018-09-02T06:05:28.038Z,83.14
2018-09-02T06:10:31.246Z,82.98
2018-09-02T06:15:34.540Z,81.95
2018-09-02T06:20:37.786Z,81.72
2018-09-02T06:25:42.063Z,82.20
2018-09-02T06:30:45.291Z,82.42
2018-09-02T06:35:48.487Z,82.43
2018-09-02T06:40:52.182Z,81.42
2018-09-02T06:45:55.481Z,80.08
2018-09-02T06:50:58.895Z,80.05
2018-09-02T06:56:02.582Z,79.91
2018-09-02T07:01:05.879Z,79.85
2018-09-02T07:06:09.084Z,77.74
2018-09-02T07:11:12.265Z,76.89
2018-09-02T07:16:15.498Z,75.86
2018-09-02T07:21:19.352Z,74.04
2018-09-02T07:26:22.690Z,75.08
2018-09-02T07:31:26.021Z,77.00
2018-09-02T07:36:29.291Z,79.18
2018-09-02T07:41:32.534Z,77.63
2018-09-02T07:46:35.768Z,76.44
2018-09-02T07:51:38.981Z,74.23
2018-09-02T07:56:42.221Z,74.81
2018-09-02T08:01:45.479Z,72.95
2018-09-02T08:06:48.688Z,73.97
2018-09-02T08:11:52.389Z,73.73
2018-09-02T08:16:55.705Z,73.93
2018-09-02T08:21:59.259Z,71.15
2018-09-02T08:27:02.638Z,71.40
2018-09-02T08:32:05.904Z,70.76
2018-09-02T08:37:09.303Z,70.84
2018-09-02T08:42:12.608Z,71.93
2018-09-02T08:47:16.018Z,72.75
2018-09-02T08:52:19.234Z,72.13
2018-09-02T08:57:22.466Z,72.16
2018-09-02T09:02:25.679Z,72.57
2018-09-02T09:07:29.802Z,73.11
2018-09-02T09:12:32.999Z,72.44
2018-09-02T09:17:37.942Z,73.29
2018-09-02T09:22:41.504Z,73.59
2018-09-02T09:27:44.819Z,75.06
2018-09-02T09:32:48.085Z,74.03
2018-09-02T09:37:51.298Z,76.59
2018-09-02T09:42:54.603Z,76.12
2018-09-02T09:47:57.792Z,75.03
2018-09-02T09:53:01.064Z,73.77
2018-09-02T09:58:04.293Z,76.94
2018-09-02T10:03:07.802Z,78.25
2018-09-02T10:08:11.238Z,81.70
2018-09-02T10:13:14.474Z,79.50
2018-09-02T10:18:17.797Z,79.47
2018-09-02T10:23:20.989Z,78.32
2018-09-02T10:28:24.252Z,77.81
2018-09-02T10:33:27.575Z,76.72
2018-09-02T10:38:30.734Z,78.14
2018-09-02T10:43:33.968Z,74.94
2018-09-02T10:48:42.739Z,72.88
2018-09-02T10:53:46.258Z,71.39
2018-09-02T10:58:50.294Z,71.04
2018-09-02T11:03:53.466Z,69.49
2018-09-02T11:08:56.662Z,70.53
2018-09-02T11:14:03.071Z,69.98
2018-09-02T11:19:06.454Z,70.66
2018-09-02T11:24:10.076Z,71.09
2018-09-02T11:29:13.337Z,69.88
2018-09-02T11:34:16.772Z,71.52
2018-09-02T11:39:19.982Z,70.70
2018-09-02T11:44:23.278Z,69.15
2018-09-02T11:49:26.913Z,64.29
2018-09-02T11:54:30.126Z,61.60
2018-09-02T11:59:33.423Z,62.01
2018-09-02T12:04:36.724Z,63.61
2018-09-02T12:09:40.241Z,65.07
2018-09-02T12:14:43.457Z,65.86
2018-09-02T12:19:47.352Z,67.97
2018-09-02T12:24:50.565Z,67.64
2018-09-02T12:29:53.834Z,65.53
2018-09-02T12:34:56.998Z,63.01
2018-09-02T12:40:00.344Z,59.85
2018-09-02T12:45:04.156Z,59.93
2018-09-02T12:50:07.528Z,59.78
2018-09-02T12:55:11.157Z,59.43
2018-09-02T13:00:14.535Z,60.54
2018-09-02T13:05:17.737Z,62.58
2018-09-02T13:10:20.898Z,60.74
2018-09-02T13:15:24.235Z,61.57
2018-09-02T13:20:27.421Z,60.57
2018-09-02T13:25:30.678Z,57.60
2018-09-02T13:30:34.354Z,54.71
2018-09-02T13:35:37.986Z,54.34
2018-09-02T13:40:41.413Z,54.14
2018-09-02T13:45:44.880Z,53.50
2018-09-02T13:50:48.123Z,54.21
2018-09-02T13:55:51.501Z,54.30
2018-09-02T14:05:56.997Z,54.36
2018-09-02T14:11:00.550Z,55.10
2018-09-02T14:16:04.195Z,54.37
2018-09-02T14:21:07.929Z,55.60
2018-09-02T14:26:11.355Z,54.25
2018-09-02T14:36:24.142Z,52.18
2018-09-02T14:41:27.332Z,52.02
2018-09-02T14:46:30.784Z,52.38
2018-09-02T14:51:34.321Z,52.25
2018-09-02T14:56:37.727Z,52.85
2018-09-02T15:01:40.991Z,53.13
2018-09-02T15:06:44.302Z,52.68
2018-09-02T15:11:47.551Z,51.96
2018-09-02T15:16:50.730Z,52.07
2018-09-02T15:22:05.103Z,53.44
2018-09-02T15:27:09.604Z,52.78
2018-09-02T15:32:12.861Z,51.83
2018-09-02T15:37:16.094Z,52.43
2018-09-02T15:42:19.375Z,50.94
2018-09-02T15:47:22.682Z,50.83
2018-09-02T15:52:25.967Z,51.00
2018-09-02T15:57:29.240Z,51.77
2018-09-02T16:02:32.732Z,50.34
2018-09-02T16:07:36.194Z,51.57
2018-09-02T16:12:39.435Z,50.98
2018-09-02T16:17:42.760Z,51.69
2018-09-02T16:22:45.979Z,51.49
2018-09-02T16:27:49.803Z,51.65
2018-09-02T16:32:53.296Z,52.21
2018-09-02T16:37:56.525Z,52.52
2018-09-02T16:42:59.833Z,51.67
2018-09-02T16:53:29.453Z,53.30
